createdAt,value
2022-12-20T00:00:51.724Z,98873.72
2022-12-20T00:03:18.410Z,98873.09
2022-12-20T00:05:45.088Z,98869.53
2022-12-20T00:08:11.632Z,98864.59
2022-12-20T00:10:38.889Z,98861.16
2022-12-20T00:13:05.881Z,98849.50
2022-12-20T00:15:32.398Z,98854.44
2022-12-20T00:17:59.135Z,98853.28
2022-12-20T00:20:25.878Z,98852.34
2022-12-20T00:22:52.352Z,98840.25
2022-12-20T00:25:20.418Z,98835.34
2022-12-20T00:27:47.490Z,98839.88
2022-12-20T00:30:14.316Z,98838.63
2022-12-20T00:32:41.209Z,98823.22
2022-12-20T00:35:07.829Z,98820.69
2022-12-20T00:37:34.304Z,98814.41
2022-12-20T00:40:00.791Z,98818.63
2022-12-20T00:42:27.546Z,98822.78
2022-12-20T00:44:54.047Z,98816.00
2022-12-20T00:47:21.316Z,98828.78
2022-12-20T00:49:47.934Z,98816.81
2022-12-20T00:52:14.408Z,98818.09
2022-12-20T00:54:40.905Z,98830.75
2022-12-20T00:57:07.465Z,98830.75
2022-12-20T00:59:34.169Z,98823.84
2022-12-20T01:02:00.782Z,98843.75
2022-12-20T01:04:27.560Z,98836.94
2022-12-20T01:06:54.096Z,98806.16
2022-12-20T01:09:20.609Z,98804.56
2022-12-20T01:11:47.099Z,98815.78
2022-12-20T01:14:14.888Z,98825.72
2022-12-20T01:16:42.598Z,98826.38
2022-12-20T01:19:10.649Z,98831.41
2022-12-20T01:21:37.146Z,98834.84
2022-12-20T01:24:04.236Z,98838.72
2022-12-20T01:26:30.747Z,98835.59
2022-12-20T01:28:58.280Z,98844.69
2022-12-20T01:31:24.890Z,98850.84
2022-12-20T01:33:52.452Z,98844.16
2022-12-20T01:36:29.498Z,98839.44
2022-12-20T01:39:00.508Z,98834.94
2022-12-20T01:41:27.937Z,98822.78
2022-12-20T01:44:01.631Z,98818.69
2022-12-20T01:46:29.349Z,98816.31
2022-12-20T01:48:56.965Z,98822.47
2022-12-20T01:51:23.468Z,98816.72
2022-12-20T01:53:51.076Z,98805.75
2022-12-20T01:56:17.564Z,98811.94
2022-12-20T01:58:45.003Z,98810.53
2022-12-20T02:01:11.571Z,98808.34
2022-12-20T02:03:38.227Z,98808.78
2022-12-20T02:06:14.088Z,98814.03
2022-12-20T02:08:40.548Z,98812.47
2022-12-20T02:11:07.357Z,98815.06
2022-12-20T02:13:49.321Z,98779.56
2022-12-20T02:16:17.863Z,98793.91
2022-12-20T02:18:47.322Z,98792.88
2022-12-20T02:21:13.819Z,98791.31
2022-12-20T02:23:59.437Z,98783.00
2022-12-20T02:26:25.939Z,98779.34
2022-12-20T02:29:11.399Z,98776.28
2022-12-20T02:31:39.332Z,98778.72
2022-12-20T02:34:06.064Z,98774.00
2022-12-20T02:36:32.660Z,98785.09
2022-12-20T02:38:59.132Z,98773.19
2022-12-20T02:41:25.560Z,98765.19
2022-12-20T02:44:12.497Z,98775.91
2022-12-20T02:46:39.239Z,98775.06
2022-12-20T02:49:08.825Z,98772.13
2022-12-20T02:51:35.371Z,98761.22
2022-12-20T02:54:01.923Z,98765.09
2022-12-20T02:56:31.688Z,98763.13
2022-12-20T02:59:07.419Z,98767.63
2022-12-20T03:01:36.731Z,98762.91
2022-12-20T03:04:03.930Z,98756.63
2022-12-20T03:06:30.898Z,98752.66
2022-12-20T03:08:57.720Z,98752.66
2022-12-20T03:11:27.373Z,98749.19
2022-12-20T03:13:54.071Z,98750.34
2022-12-20T03:16:20.696Z,98747.22
2022-12-20T03:18:48.207Z,98740.72
2022-12-20T03:21:14.749Z,98743.94
2022-12-20T03:23:41.271Z,98740.72
2022-12-20T03:26:07.855Z,98746.88
2022-12-20T03:28:39.434Z,98746.03
2022-12-20T03:31:07.589Z,98738.63
2022-12-20T03:33:42.212Z,98749.28
2022-12-20T03:36:08.817Z,98741.25
2022-12-20T03:38:36.275Z,98738.81
2022-12-20T03:41:05.154Z,98722.91
2022-12-20T03:43:31.711Z,98736.19
2022-12-20T03:45:58.313Z,98733.91
2022-12-20T03:48:26.077Z,98739.97
2022-12-20T03:50:52.596Z,98729.28
2022-12-20T03:53:19.122Z,98721.81
2022-12-20T03:55:45.924Z,98727.28
2022-12-20T03:58:13.448Z,98729.50
2022-12-20T04:00:39.956Z,98721.94
2022-12-20T04:03:26.521Z,98730.41
2022-12-20T04:05:54.155Z,98728.53
2022-12-20T04:08:21.236Z,98727.06
2022-12-20T04:11:08.445Z,98719.88
2022-12-20T04:13:36.598Z,98719.34
2022-12-20T04:16:04.022Z,98711.59
2022-12-20T04:18:32.596Z,98702.97
2022-12-20T04:21:00.734Z,98707.81
2022-12-20T04:23:29.686Z,98699.81
2022-12-20T04:25:56.503Z,98691.16
2022-12-20T04:28:23.133Z,98701.53
2022-12-20T04:30:51.197Z,98699.34
2022-12-20T04:33:23.430Z,98702.81
2022-12-20T04:35:50.113Z,98698.69
2022-12-20T04:38:16.841Z,98707.81
2022-12-20T04:40:44.448Z,98715.88
2022-12-20T04:43:10.987Z,98714.53
2022-12-20T04:45:38.743Z,98707.72
2022-12-20T04:48:36.944Z,98689.81
2022-12-20T04:50:52.164Z,98690.75
2022-12-20T04:53:37.335Z,98687.53
2022-12-20T04:56:04.146Z,98677.06
2022-12-20T04:58:30.932Z,98682.69
2022-12-20T05:00:59.305Z,98686.59
2022-12-20T05:03:29.856Z,98686.59
2022-12-20T05:05:56.607Z,98675.72
2022-12-20T05:08:23.531Z,98673.06
2022-12-20T05:10:52.016Z,98673.94
2022-12-20T05:13:18.644Z,98683.97
2022-12-20T05:15:46.422Z,98668.56
2022-12-20T05:18:13.017Z,98669.00
2022-12-20T05:21:15.340Z,98670.44
2022-12-20T05:24:02.889Z,98673.47
2022-12-20T05:26:33.032Z,98669.81
2022-12-20T05:29:00.862Z,98665.13
2022-12-20T05:31:27.962Z,98655.41
2022-12-20T05:33:54.680Z,98642.69
2022-12-20T05:36:22.828Z,98640.88
2022-12-20T05:38:50.106Z,98648.72
2022-12-20T05:41:18.919Z,98654.41
2022-12-20T05:43:48.774Z,98652.53
2022-12-20T05:46:15.540Z,98647.44
2022-12-20T05:48:53.268Z,98662.31
2022-12-20T05:51:19.899Z,98655.50
2022-12-20T05:53:56.621Z,98639.06
2022-12-20T05:56:37.894Z,98627.03
2022-12-20T05:59:09.491Z,98622.66
2022-12-20T06:01:37.214Z,98623.06
2022-12-20T06:04:05.136Z,98622.75
2022-12-20T06:06:32.760Z,98625.88
2022-12-20T06:08:59.560Z,98618.22
2022-12-20T06:11:49.109Z,98633.34
2022-12-20T06:14:15.642Z,98637.03
2022-12-20T06:16:47.530Z,98637.22
2022-12-20T06:19:21.427Z,98632.34
2022-12-20T06:21:49.539Z,98638.91
2022-12-20T06:24:19.096Z,98644.44
2022-12-20T06:26:45.855Z,98638.06
2022-12-20T06:29:14.376Z,98637.94
2022-12-20T06:31:45.865Z,98639.28
2022-12-20T06:34:13.191Z,98631.44
2022-12-20T06:36:41.516Z,98628.66
2022-12-20T06:39:13.221Z,98642.25
2022-12-20T06:41:47.647Z,98650.53
2022-12-20T06:44:14.179Z,98648.16
2022-12-20T06:46:40.775Z,98651.03
2022-12-20T06:49:07.301Z,98654.84
2022-12-20T06:51:33.834Z,98658.81
2022-12-20T06:54:00.550Z,98649.25
2022-12-20T06:56:32.597Z,98651.31
2022-12-20T06:59:04.936Z,98653.47
2022-12-20T07:01:31.653Z,98645.44
2022-12-20T07:03:58.181Z,98649.91
2022-12-20T07:06:24.674Z,98646.22
2022-12-20T07:08:51.190Z,98641.81
2022-12-20T07:11:18.537Z,98634.19
2022-12-20T07:13:45.056Z,98649.13
2022-12-20T07:16:11.678Z,98650.44
2022-12-20T07:18:38.227Z,98643.50
2022-12-20T07:21:05.363Z,98644.56
2022-12-20T07:23:32.063Z,98646.19
2022-12-20T07:25:59.420Z,98649.00
2022-12-20T07:28:26.275Z,98655.66
2022-12-20T07:30:52.933Z,98645.38
2022-12-20T07:33:19.749Z,98641.94
2022-12-20T07:35:52.440Z,98646.06
2022-12-20T07:38:20.852Z,98643.63
2022-12-20T07:40:47.375Z,98639.19
2022-12-20T07:43:13.904Z,98643.75
2022-12-20T07:45:40.469Z,98647.22
2022-12-20T07:48:12.357Z,98643.78
2022-12-20T07:50:41.829Z,98636.03
2022-12-20T07:53:08.370Z,98626.84
2022-12-20T07:55:36.543Z,98623.06
2022-12-20T07:58:05.456Z,98632.72
2022-12-20T08:00:31.974Z,98627.34
2022-12-20T08:03:03.210Z,98631.78
2022-12-20T08:05:32.449Z,98639.16
2022-12-20T08:08:04.185Z,98639.78
2022-12-20T08:10:32.750Z,98642.28
2022-12-20T08:12:59.241Z,98632.00
2022-12-20T08:15:25.846Z,98636.25
2022-12-20T08:17:52.392Z,98641.28
2022-12-20T08:20:19.059Z,98635.47
2022-12-20T08:22:45.596Z,98635.47
2022-12-20T08:25:12.156Z,98637.09
2022-12-20T08:27:38.680Z,98625.06
2022-12-20T08:30:05.875Z,98623.03
2022-12-20T08:32:32.496Z,98622.53
2022-12-20T08:34:59.018Z,98614.56
2022-12-20T08:37:25.511Z,98606.47
2022-12-20T08:39:52.015Z,98592.28
2022-12-20T08:42:18.536Z,98595.25
2022-12-20T08:44:45.089Z,98598.94
2022-12-20T08:47:11.677Z,98599.19
2022-12-20T08:49:43.991Z,98588.69
2022-12-20T08:52:13.790Z,98591.78
2022-12-20T08:54:40.284Z,98591.34
2022-12-20T08:57:06.789Z,98588.09
2022-12-20T08:59:33.280Z,98586.31
2022-12-20T09:01:59.941Z,98580.56
2022-12-20T09:04:26.597Z,98576.97
2022-12-20T09:06:53.091Z,98575.97
2022-12-20T09:09:19.687Z,98570.16
2022-12-20T09:11:46.221Z,98577.53
2022-12-20T09:14:12.743Z,98582.91
2022-12-20T09:16:39.291Z,98584.19
2022-12-20T09:19:06.674Z,98581.06
2022-12-20T09:21:34.133Z,98578.06
2022-12-20T09:24:00.674Z,98573.66
2022-12-20T09:26:27.231Z,98572.34
2022-12-20T09:28:54.067Z,98571.72
2022-12-20T09:31:21.792Z,98574.84
2022-12-20T09:33:48.446Z,98573.53
2022-12-20T09:36:15.906Z,98570.88
2022-12-20T09:38:42.450Z,98575.50
2022-12-20T09:41:26.972Z,98574.06
2022-12-20T09:43:53.634Z,98568.69
2022-12-20T09:46:20.362Z,98570.94
2022-12-20T09:48:46.923Z,98564.47
2022-12-20T09:51:18.757Z,98550.16
2022-12-20T09:53:57.433Z,98556.19
2022-12-20T09:56:33.531Z,98555.94
2022-12-20T09:59:01.667Z,98550.78
2022-12-20T10:01:36.261Z,98540.84
2022-12-20T10:04:12.989Z,98539.19
2022-12-20T10:06:39.720Z,98544.59
2022-12-20T10:09:10.589Z,98538.69
2022-12-20T10:11:46.337Z,98529.09
2022-12-20T10:14:29.016Z,98524.19
2022-12-20T10:17:04.251Z,98535.88
2022-12-20T10:19:36.595Z,98522.84
2022-12-20T10:22:14.601Z,98525.22
2022-12-20T10:24:41.519Z,98530.38
2022-12-20T10:27:17.277Z,98534.19
2022-12-20T10:29:43.981Z,98525.75
2022-12-20T10:32:12.840Z,98526.75
2022-12-20T10:34:46.666Z,98525.84
2022-12-20T10:37:16.208Z,98525.63
2022-12-20T10:39:43.612Z,98519.91
2022-12-20T10:42:28.819Z,98522.03
2022-12-20T10:44:55.508Z,98519.28
2022-12-20T10:47:24.775Z,98511.50
2022-12-20T10:49:51.311Z,98501.69
2022-12-20T10:52:18.401Z,98506.88
2022-12-20T10:54:45.756Z,98504.97
2022-12-20T10:57:22.544Z,98507.72
2022-12-20T10:59:50.157Z,98501.38
2022-12-20T11:02:22.329Z,98495.41
2022-12-20T11:04:59.959Z,98488.66
2022-12-20T11:07:27.685Z,98479.13
2022-12-20T11:09:58.348Z,98485.97
2022-12-20T11:12:25.019Z,98481.78
2022-12-20T11:14:51.966Z,98471.03
2022-12-20T11:17:24.135Z,98476.78
2022-12-20T11:20:09.328Z,98464.66
2022-12-20T11:23:04.949Z,98479.19
2022-12-20T11:25:31.390Z,98465.94
2022-12-20T11:27:57.879Z,98456.69
2022-12-20T11:30:25.212Z,98457.22
2022-12-20T11:33:15.861Z,98457.94
2022-12-20T11:35:54.707Z,98461.81
2022-12-20T11:38:36.127Z,98450.75
2022-12-20T11:41:20.712Z,98458.63
2022-12-20T11:44:23.180Z,98454.19
2022-12-20T11:46:46.669Z,98437.13
2022-12-20T11:49:13.161Z,98440.47
2022-12-20T11:51:43.661Z,98427.28
2022-12-20T11:54:15.167Z,98406.31
2022-12-20T11:56:45.309Z,98405.13
2022-12-20T11:59:20.339Z,98398.00
2022-12-20T12:01:48.611Z,98404.28
2022-12-20T12:04:20.319Z,98402.63
2022-12-20T12:06:52.507Z,98390.81
2022-12-20T12:09:24.149Z,98397.19
2022-12-20T12:12:09.632Z,98411.19
2022-12-20T12:14:43.798Z,98417.84
2022-12-20T12:17:13.420Z,98426.34
2022-12-20T12:19:41.172Z,98418.97
2022-12-20T12:22:10.073Z,98408.84
2022-12-20T12:24:39.257Z,98414.41
2022-12-20T12:27:08.004Z,98396.78
2022-12-20T12:29:37.774Z,98400.53
2022-12-20T12:32:13.789Z,98393.84
2022-12-20T12:35:00.550Z,98380.81
2022-12-20T12:37:27.661Z,98387.75
2022-12-20T12:40:17.476Z,98378.63
2022-12-20T12:42:43.945Z,98363.25
2022-12-20T12:45:19.966Z,98364.59
2022-12-20T12:47:46.577Z,98379.16
2022-12-20T12:50:36.832Z,98383.72
2022-12-20T12:53:07.772Z,98383.97
2022-12-20T12:55:39.251Z,98382.75
2022-12-20T13:01:13.730Z,98355.28
2022-12-20T13:03:44.641Z,98350.97
2022-12-20T13:06:23.659Z,98330.75
2022-12-20T13:09:10.706Z,98328.13
2022-12-20T13:11:46.623Z,98326.59
2022-12-20T13:14:17.091Z,98321.03
2022-12-20T13:19:40.587Z,98322.13
2022-12-20T13:22:13.055Z,98324.78
2022-12-20T13:24:46.708Z,98314.50
2022-12-20T13:27:22.870Z,98318.38
2022-12-20T13:29:54.699Z,98323.22
2022-12-20T13:32:40.038Z,98333.94
2022-12-20T13:35:27.037Z,98339.72
2022-12-20T13:37:54.972Z,98341.25
2022-12-20T13:40:26.980Z,98344.22
2022-12-20T13:42:54.037Z,98343.94
2022-12-20T13:45:20.622Z,98344.09
2022-12-20T13:47:48.721Z,98335.94
2022-12-20T13:50:22.825Z,98349.94
2022-12-20T13:52:49.347Z,98350.91
2022-12-20T13:55:16.859Z,98340.22
2022-12-20T13:57:43.804Z,98324.13
2022-12-20T14:00:23.627Z,98314.28
2022-12-20T14:02:50.387Z,98312.81
2022-12-20T14:05:26.450Z,98319.69
2022-12-20T14:07:58.059Z,98314.97
2022-12-20T14:10:25.328Z,98310.09
2022-12-20T14:12:52.320Z,98301.78
2022-12-20T14:15:22.183Z,98286.50
2022-12-20T14:17:48.668Z,98292.88
2022-12-20T14:20:16.318Z,98292.59
2022-12-20T14:22:46.976Z,98291.72
2022-12-20T14:25:14.757Z,98293.50
2022-12-20T14:27:41.235Z,98291.28
2022-12-20T14:30:25.113Z,98282.00
2022-12-20T14:32:51.610Z,98291.47
2022-12-20T14:35:20.886Z,98277.34
2022-12-20T14:37:55.014Z,98265.38
2022-12-20T14:40:21.625Z,98266.50
2022-12-20T14:42:48.124Z,98279.78
2022-12-20T14:45:14.609Z,98270.66
2022-12-20T14:47:51.307Z,98273.44
2022-12-20T14:50:19.243Z,98273.19
2022-12-20T14:52:46.134Z,98272.91
2022-12-20T14:55:32.959Z,98279.63
2022-12-20T14:57:59.565Z,98285.84
2022-12-20T15:00:29.148Z,98277.94
2022-12-20T15:02:55.920Z,98273.69
2022-12-20T15:05:40.773Z,98275.78
2022-12-20T15:08:10.976Z,98265.81
2022-12-20T15:10:37.475Z,98258.06
2022-12-20T15:13:11.783Z,98257.34
2022-12-20T15:15:38.459Z,98253.91
2022-12-20T15:18:14.957Z,98263.47
2022-12-20T15:20:41.949Z,98263.75
2022-12-20T15:23:15.593Z,98264.69
2022-12-20T15:25:43.737Z,98259.41
2022-12-20T15:28:17.259Z,98253.19
2022-12-20T15:30:47.222Z,98247.78
2022-12-20T15:33:18.142Z,98241.84
2022-12-20T15:35:45.056Z,98254.47
2022-12-20T15:38:16.688Z,98263.47
2022-12-20T15:40:44.038Z,98264.31
2022-12-20T15:43:14.019Z,98255.97
2022-12-20T15:45:40.929Z,98251.28
2022-12-20T15:48:14.757Z,98261.50
2022-12-20T15:50:43.167Z,98254.72
2022-12-20T15:53:12.541Z,98248.50
2022-12-20T15:55:41.536Z,98250.97
2022-12-20T15:58:08.971Z,98246.69
2022-12-20T16:00:37.471Z,98245.16
2022-12-20T16:03:04.124Z,98245.59
2022-12-20T16:05:30.813Z,98253.59
2022-12-20T16:07:57.315Z,98244.19
2022-12-20T16:10:23.969Z,98258.59
2022-12-20T16:12:50.537Z,98256.09
2022-12-20T16:15:20.640Z,98259.88
2022-12-20T16:17:47.137Z,98261.78
2022-12-20T16:20:13.760Z,98257.75
2022-12-20T16:22:40.295Z,98256.78
2022-12-20T16:25:07.055Z,98261.03
2022-12-20T16:27:33.528Z,98248.88
2022-12-20T16:29:59.992Z,98255.63
2022-12-20T16:32:26.487Z,98258.00
2022-12-20T16:34:52.971Z,98261.59
2022-12-20T16:37:19.588Z,98263.94
2022-12-20T16:39:46.032Z,98254.97
2022-12-20T16:42:17.096Z,98259.91
2022-12-20T16:44:45.559Z,98265.31
2022-12-20T16:47:12.765Z,98261.59
2022-12-20T16:49:40.292Z,98263.22
2022-12-20T16:52:09.806Z,98261.28
2022-12-20T16:54:36.404Z,98256.22
2022-12-20T16:57:02.888Z,98248.47
2022-12-20T16:59:29.354Z,98259.25
2022-12-20T17:01:57.022Z,98264.00
2022-12-20T17:04:24.040Z,98246.28
2022-12-20T17:06:50.561Z,98243.38
2022-12-20T17:09:17.640Z,98252.38
2022-12-20T17:11:44.200Z,98258.91
2022-12-20T17:14:12.880Z,98257.09
2022-12-20T17:16:39.936Z,98249.59
2022-12-20T17:19:06.477Z,98240.34
2022-12-20T17:24:18.346Z,98239.22
2022-12-20T17:26:44.934Z,98240.34
2022-12-20T17:29:11.628Z,98229.66
2022-12-20T17:31:39.356Z,98244.88
2022-12-20T17:34:26.349Z,98243.22
2022-12-20T17:36:54.301Z,98233.50
2022-12-20T17:39:21.246Z,98226.59
2022-12-20T17:41:47.737Z,98225.75
2022-12-20T17:44:17.169Z,98226.97
2022-12-20T17:49:29.556Z,98222.34
2022-12-20T17:51:56.749Z,98220.56
2022-12-20T17:54:24.236Z,98215.72
2022-12-20T17:56:51.024Z,98211.47
2022-12-20T17:59:18.224Z,98219.03
2022-12-20T18:01:44.993Z,98210.97
2022-12-20T18:04:19.458Z,98198.91
2022-12-20T18:06:50.324Z,98193.09
2022-12-20T18:09:18.597Z,98184.34
2022-12-20T18:11:47.780Z,98191.09
2022-12-20T18:14:14.335Z,98187.34
2022-12-20T18:16:40.936Z,98179.22
2022-12-20T18:19:08.156Z,98187.28
2022-12-20T18:21:34.980Z,98183.03
2022-12-20T18:24:01.520Z,98189.44
2022-12-20T18:26:31.232Z,98181.22
2022-12-20T18:28:59.598Z,98184.16
2022-12-20T18:31:26.856Z,98178.50
2022-12-20T18:33:57.719Z,98200.03
2022-12-20T18:36:28.860Z,98206.81
2022-12-20T18:38:55.740Z,98204.34
2022-12-20T18:41:24.077Z,98193.69
2022-12-20T18:43:51.043Z,98202.72
2022-12-20T18:46:18.721Z,98200.38
2022-12-20T18:48:48.311Z,98198.78
2022-12-20T18:51:15.557Z,98184.59
2022-12-20T18:53:42.739Z,98188.34
2022-12-20T18:56:14.444Z,98190.56
2022-12-20T18:58:41.279Z,98186.81
2022-12-20T19:01:10.327Z,98191.69
2022-12-20T19:03:36.967Z,98195.66
2022-12-20T19:06:03.592Z,98182.38
2022-12-20T19:08:30.239Z,98188.22
2022-12-20T19:11:00.267Z,98198.75
2022-12-20T19:13:26.841Z,98197.34
2022-12-20T19:16:02.715Z,98192.50
2022-12-20T19:18:29.272Z,98194.03
2022-12-20T19:20:55.860Z,98192.91
2022-12-20T19:23:22.582Z,98196.47
2022-12-20T19:25:49.122Z,98192.31
2022-12-20T19:28:15.602Z,98189.28
2022-12-20T19:30:42.141Z,98200.63
2022-12-20T19:33:09.131Z,98190.84
2022-12-20T19:38:22.058Z,98178.09
2022-12-20T19:40:53.356Z,98179.47
2022-12-20T19:43:20.188Z,98176.00
2022-12-20T19:45:46.747Z,98179.84
2022-12-20T19:54:13.307Z,98158.38
2022-12-20T19:59:37.165Z,98159.59
2022-12-20T20:02:03.875Z,98155.81
2022-12-20T20:04:30.878Z,98163.94
2022-12-20T20:06:57.520Z,98151.19
2022-12-20T20:09:24.204Z,98150.34
2022-12-20T20:11:50.797Z,98151.44
2022-12-20T20:14:17.335Z,98148.97
2022-12-20T20:16:44.060Z,98151.19
2022-12-20T20:19:10.726Z,98150.88
2022-12-20T20:21:37.986Z,98163.34
2022-12-20T20:24:04.767Z,98166.97
2022-12-20T20:26:31.865Z,98166.00
2022-12-20T20:28:58.477Z,98167.59
2022-12-20T20:31:25.092Z,98175.38
2022-12-20T20:33:51.734Z,98168.81
2022-12-20T20:36:19.502Z,98187.22
2022-12-20T20:38:47.183Z,98195.13
2022-12-20T20:41:14.323Z,98204.47
2022-12-20T20:43:40.872Z,98208.91
2022-12-20T20:46:08.034Z,98205.16
2022-12-20T20:48:34.798Z,98207.22
2022-12-20T20:51:01.374Z,98209.31
2022-12-20T20:53:33.543Z,98210.66
2022-12-20T20:56:01.365Z,98222.59
2022-12-20T20:58:27.978Z,98222.59
2022-12-20T21:00:59.043Z,98222.72
2022-12-20T21:03:27.363Z,98231.31
2022-12-20T21:08:41.000Z,98224.69
2022-12-20T21:11:07.820Z,98232.84
2022-12-20T21:13:34.742Z,98223.41
2022-12-20T21:16:08.315Z,98229.66
2022-12-20T21:18:34.988Z,98225.34
2022-12-20T21:21:08.465Z,98227.88
2022-12-20T21:23:35.087Z,98223.72
2022-12-20T21:26:01.749Z,98225.66
2022-12-20T21:28:28.306Z,98222.06
2022-12-20T21:30:59.159Z,98235.47
2022-12-20T21:33:25.765Z,98230.78
2022-12-20T21:35:59.191Z,98228.56
2022-12-20T21:38:25.896Z,98228.97
2022-12-20T21:40:52.412Z,98202.66
2022-12-20T21:43:18.956Z,98207.06
2022-12-20T21:45:49.759Z,98211.81
2022-12-20T21:48:16.746Z,98202.38
2022-12-20T21:50:43.312Z,98195.72
2022-12-20T21:53:12.841Z,98199.34
2022-12-20T21:55:44.066Z,98186.59
2022-12-20T21:58:10.596Z,98189.66
2022-12-20T22:00:37.172Z,98189.50
2022-12-20T22:03:04.705Z,98189.38
2022-12-20T22:05:31.341Z,98187.28
2022-12-20T22:07:57.905Z,98180.91
2022-12-20T22:10:24.443Z,98180.50
2022-12-20T22:12:50.986Z,98191.03
2022-12-20T22:15:17.741Z,98185.47
2022-12-20T22:17:45.057Z,98188.66
2022-12-20T22:20:13.161Z,98202.66
2022-12-20T22:22:39.782Z,98208.47
2022-12-20T22:25:06.359Z,98209.56
2022-12-20T22:27:32.943Z,98209.88
2022-12-20T22:29:59.490Z,98202.81
2022-12-20T22:32:26.097Z,98214.84
2022-12-20T22:34:52.618Z,98217.34
2022-12-20T22:37:19.165Z,98213.84
2022-12-20T22:39:45.725Z,98218.88
2022-12-20T22:42:12.480Z,98199.91
2022-12-20T22:44:39.445Z,98202.25
2022-12-20T22:47:06.224Z,98202.09
2022-12-20T22:49:32.998Z,98201.38
2022-12-20T22:52:07.213Z,98205.16
2022-12-20T22:54:34.361Z,98203.91
2022-12-20T22:57:01.109Z,98195.44
2022-12-20T22:59:28.139Z,98190.63
2022-12-20T23:01:55.311Z,98196.00
2022-12-20T23:04:22.076Z,98200.28
2022-12-20T23:06:48.686Z,98197.53
2022-12-20T23:09:15.227Z,98188.81
2022-12-20T23:12:00.710Z,98187.00
2022-12-20T23:14:45.902Z,98177.44
2022-12-20T23:17:12.661Z,98169.69
2022-12-20T23:19:58.051Z,98179.25
2022-12-20T23:22:40.470Z,98173.28
2022-12-20T23:25:08.420Z,98171.63
2022-12-20T23:27:35.369Z,98173.56
2022-12-20T23:30:02.713Z,98171.09
2022-12-20T23:32:29.368Z,98165.69
2022-12-20T23:34:56.004Z,98160.00
2022-12-20T23:37:33.774Z,98156.00
2022-12-20T23:40:02.342Z,98159.47
2022-12-20T23:42:29.277Z,98161.97
2022-12-20T23:44:55.788Z,98163.59
2022-12-20T23:47:22.445Z,98168.75
2022-12-20T23:49:49.086Z,98166.94
2022-12-20T23:52:15.716Z,98165.81
2022-12-20T23:54:42.515Z,98166.63
2022-12-20T23:57:09.001Z,98161.66
2022-12-20T23:59:35.560Z,98159.16
